sensor_id;sensor_type;location;lat;lon;timestamp;pressure;altitude;pressure_sealevel;temperature;humidity
81387;BME280;70842;50.744;7.114;2024-03-02T00:00:08;99685.97;;;10.69;55.71
81387;BME280;70842;50.744;7.114;2024-03-02T00:02:49;99681.53;;;10.87;55.01
81387;BME280;70842;50.744;7.114;2024-03-02T00:05:17;99687.25;;;10.65;55.64
81387;BME280;70842;50.744;7.114;2024-03-02T00:07:46;99679.66;;;10.97;54.79
81387;BME280;70842;50.744;7.114;2024-03-02T00:10:16;99687.22;;;11.10;54.13
81387;BME280;70842;50.744;7.114;2024-03-02T00:12:43;99686.94;;;11.13;54.13
81387;BME280;70842;50.744;7.114;2024-03-02T00:18:14;99674.97;;;10.91;54.61
81387;BME280;70842;50.744;7.114;2024-03-02T00:20:42;99676.69;;;11.18;54.31
81387;BME280;70842;50.744;7.114;2024-03-02T00:23:10;99684.72;;;10.73;55.04
81387;BME280;70842;50.744;7.114;2024-03-02T00:25:42;99675.47;;;10.77;54.90
81387;BME280;70842;50.744;7.114;2024-03-02T00:28:17;99670.47;;;11.44;53.58
81387;BME280;70842;50.744;7.114;2024-03-02T00:30:58;99668.06;;;11.33;53.51
81387;BME280;70842;50.744;7.114;2024-03-02T00:33:27;99665.16;;;11.44;53.33
81387;BME280;70842;50.744;7.114;2024-03-02T00:35:54;99663.50;;;11.43;53.50
81387;BME280;70842;50.744;7.114;2024-03-02T00:38:21;99654.78;;;11.51;53.08
81387;BME280;70842;50.744;7.114;2024-03-02T00:40:50;99652.00;;;11.60;52.79
81387;BME280;70842;50.744;7.114;2024-03-02T00:46:01;99658.31;;;11.59;52.43
81387;BME280;70842;50.744;7.114;2024-03-02T00:48:28;99650.34;;;11.34;53.30
81387;BME280;70842;50.744;7.114;2024-03-02T00:50:57;99644.53;;;11.13;53.78
81387;BME280;70842;50.744;7.114;2024-03-02T00:53:26;99643.06;;;11.18;53.52
81387;BME280;70842;50.744;7.114;2024-03-02T00:55:52;99642.72;;;11.13;53.65
81387;BME280;70842;50.744;7.114;2024-03-02T00:58:19;99655.41;;;11.45;53.15
81387;BME280;70842;50.744;7.114;2024-03-02T01:00:45;99639.97;;;11.05;53.67
81387;BME280;70842;50.744;7.114;2024-03-02T01:03:12;99637.00;;;10.90;53.71
81387;BME280;70842;50.744;7.114;2024-03-02T01:05:42;99650.72;;;11.21;53.30
81387;BME280;70842;50.744;7.114;2024-03-02T01:08:10;99644.06;;;11.17;53.52
81387;BME280;70842;50.744;7.114;2024-03-02T01:10:36;99643.69;;;11.12;53.41
81387;BME280;70842;50.744;7.114;2024-03-02T01:13:03;99644.97;;;10.90;53.61
81387;BME280;70842;50.744;7.114;2024-03-02T01:15:29;99638.81;;;11.25;53.33
81387;BME280;70842;50.744;7.114;2024-03-02T01:17:56;99642.25;;;10.82;53.63
81387;BME280;70842;50.744;7.114;2024-03-02T01:20:22;99640.28;;;10.84;53.57
81387;BME280;70842;50.744;7.114;2024-03-02T01:22:49;99634.38;;;11.08;53.17
81387;BME280;70842;50.744;7.114;2024-03-02T01:25:15;99623.69;;;11.00;53.48
81387;BME280;70842;50.744;7.114;2024-03-02T01:27:41;99637.19;;;11.07;53.06
81387;BME280;70842;50.744;7.114;2024-03-02T01:30:08;99629.72;;;11.28;52.86
81387;BME280;70842;50.744;7.114;2024-03-02T01:32:35;99628.38;;;11.24;52.68
81387;BME280;70842;50.744;7.114;2024-03-02T01:35:01;99635.72;;;11.12;52.79
81387;BME280;70842;50.744;7.114;2024-03-02T01:37:28;99624.66;;;11.34;52.14
81387;BME280;70842;50.744;7.114;2024-03-02T01:39:54;99626.81;;;11.13;52.72
81387;BME280;70842;50.744;7.114;2024-03-02T01:42:20;99626.25;;;11.27;52.64
81387;BME280;70842;50.744;7.114;2024-03-02T01:44:47;99618.91;;;11.04;52.56
81387;BME280;70842;50.744;7.114;2024-03-02T01:47:13;99619.84;;;10.77;53.32
81387;BME280;70842;50.744;7.114;2024-03-02T01:49:40;99623.13;;;11.32;52.40
81387;BME280;70842;50.744;7.114;2024-03-02T01:52:07;99618.16;;;10.93;52.69
81387;BME280;70842;50.744;7.114;2024-03-02T01:54:33;99618.84;;;11.39;52.25
81387;BME280;70842;50.744;7.114;2024-03-02T01:57:00;99617.47;;;11.09;52.86
81387;BME280;70842;50.744;7.114;2024-03-02T01:59:27;99618.91;;;11.21;52.30
81387;BME280;70842;50.744;7.114;2024-03-02T02:01:53;99611.06;;;10.94;52.73
81387;BME280;70842;50.744;7.114;2024-03-02T02:04:20;99619.44;;;11.07;52.70
81387;BME280;70842;50.744;7.114;2024-03-02T02:06:53;99612.53;;;10.96;53.14
81387;BME280;70842;50.744;7.114;2024-03-02T02:09:20;99606.56;;;11.12;52.92
81387;BME280;70842;50.744;7.114;2024-03-02T02:11:46;99604.25;;;10.91;52.97
81387;BME280;70842;50.744;7.114;2024-03-02T02:14:13;99616.78;;;10.72;53.33
81387;BME280;70842;50.744;7.114;2024-03-02T02:16:39;99604.56;;;10.71;53.15
81387;BME280;70842;50.744;7.114;2024-03-02T02:19:06;99602.09;;;10.95;52.72
81387;BME280;70842;50.744;7.114;2024-03-02T02:21:32;99584.00;;;11.08;52.31
81387;BME280;70842;50.744;7.114;2024-03-02T02:23:59;99590.25;;;11.25;52.16
81387;BME280;70842;50.744;7.114;2024-03-02T02:26:25;99592.44;;;10.68;53.52
81387;BME280;70842;50.744;7.114;2024-03-02T02:28:51;99593.19;;;10.96;52.73
81387;BME280;70842;50.744;7.114;2024-03-02T02:31:18;99601.25;;;11.12;52.66
81387;BME280;70842;50.744;7.114;2024-03-02T02:33:44;99592.28;;;10.70;53.11
81387;BME280;70842;50.744;7.114;2024-03-02T02:36:11;99591.72;;;10.84;53.20
81387;BME280;70842;50.744;7.114;2024-03-02T02:38:40;99591.06;;;10.82;53.03
81387;BME280;70842;50.744;7.114;2024-03-02T02:41:06;99584.28;;;11.05;52.80
81387;BME280;70842;50.744;7.114;2024-03-02T02:43:33;99581.97;;;10.49;53.81
81387;BME280;70842;50.744;7.114;2024-03-02T02:45:59;99581.75;;;10.78;53.33
81387;BME280;70842;50.744;7.114;2024-03-02T02:48:26;99589.84;;;10.76;53.16
81387;BME280;70842;50.744;7.114;2024-03-02T02:50:52;99584.56;;;10.76;53.27
81387;BME280;70842;50.744;7.114;2024-03-02T02:53:18;99589.41;;;10.18;54.79
81387;BME280;70842;50.744;7.114;2024-03-02T02:55:46;99591.97;;;10.55;53.86
81387;BME280;70842;50.744;7.114;2024-03-02T02:58:13;99584.38;;;10.43;54.17
81387;BME280;70842;50.744;7.114;2024-03-02T03:00:40;99586.94;;;10.52;53.89
81387;BME280;70842;50.744;7.114;2024-03-02T03:03:06;99591.16;;;10.72;53.60
81387;BME280;70842;50.744;7.114;2024-03-02T03:05:33;99590.13;;;10.38;53.80
81387;BME280;70842;50.744;7.114;2024-03-02T03:07:59;99592.72;;;10.83;53.55
81387;BME280;70842;50.744;7.114;2024-03-02T03:10:26;99599.16;;;10.18;54.79
81387;BME280;70842;50.744;7.114;2024-03-02T03:12:54;99589.63;;;10.70;53.77
81387;BME280;70842;50.744;7.114;2024-03-02T03:15:22;99581.53;;;10.54;54.12
81387;BME280;70842;50.744;7.114;2024-03-02T03:17:49;99589.38;;;10.63;53.99
81387;BME280;70842;50.744;7.114;2024-03-02T03:20:17;99588.31;;;10.56;54.48
81387;BME280;70842;50.744;7.114;2024-03-02T03:22:43;99588.03;;;10.59;54.54
81387;BME280;70842;50.744;7.114;2024-03-02T03:25:10;99591.25;;;10.36;54.66
81387;BME280;70842;50.744;7.114;2024-03-02T03:27:36;99582.22;;;10.56;54.06
81387;BME280;70842;50.744;7.114;2024-03-02T03:30:03;99585.44;;;10.67;53.83
81387;BME280;70842;50.744;7.114;2024-03-02T03:32:30;99601.19;;;10.86;53.70
81387;BME280;70842;50.744;7.114;2024-03-02T03:34:56;99595.44;;;10.56;54.37
81387;BME280;70842;50.744;7.114;2024-03-02T03:37:23;99610.88;;;10.43;54.57
81387;BME280;70842;50.744;7.114;2024-03-02T03:39:50;99594.63;;;10.73;53.86
81387;BME280;70842;50.744;7.114;2024-03-02T03:42:17;99602.50;;;10.82;53.69
81387;BME280;70842;50.744;7.114;2024-03-02T03:44:43;99606.28;;;11.15;52.98
81387;BME280;70842;50.744;7.114;2024-03-02T03:47:09;99603.47;;;10.99;53.49
81387;BME280;70842;50.744;7.114;2024-03-02T03:49:36;99607.19;;;10.71;54.36
81387;BME280;70842;50.744;7.114;2024-03-02T03:52:02;99598.63;;;10.77;53.99
81387;BME280;70842;50.744;7.114;2024-03-02T03:54:30;99594.16;;;11.13;53.51
81387;BME280;70842;50.744;7.114;2024-03-02T03:56:56;99599.34;;;11.22;52.91
81387;BME280;70842;50.744;7.114;2024-03-02T03:59:23;99606.34;;;10.53;54.41
81387;BME280;70842;50.744;7.114;2024-03-02T04:01:50;99599.19;;;10.36;54.87
81387;BME280;70842;50.744;7.114;2024-03-02T04:04:16;99602.91;;;10.60;54.56
81387;BME280;70842;50.744;7.114;2024-03-02T04:06:43;99614.72;;;10.48;54.69
81387;BME280;70842;50.744;7.114;2024-03-02T04:09:10;99599.94;;;10.73;54.31
81387;BME280;70842;50.744;7.114;2024-03-02T04:11:36;99601.13;;;10.61;54.31
81387;BME280;70842;50.744;7.114;2024-03-02T04:14:03;99605.03;;;10.57;54.46
81387;BME280;70842;50.744;7.114;2024-03-02T04:16:29;99612.56;;;10.61;54.64
81387;BME280;70842;50.744;7.114;2024-03-02T04:18:56;99613.41;;;10.62;54.56
81387;BME280;70842;50.744;7.114;2024-03-02T04:21:23;99615.66;;;10.74;54.18
81387;BME280;70842;50.744;7.114;2024-03-02T04:23:49;99623.22;;;10.52;54.59
81387;BME280;70842;50.744;7.114;2024-03-02T04:26:15;99619.59;;;10.70;54.44
81387;BME280;70842;50.744;7.114;2024-03-02T04:28:46;99624.34;;;10.49;54.83
81387;BME280;70842;50.744;7.114;2024-03-02T04:31:12;99619.44;;;10.72;54.19
81387;BME280;70842;50.744;7.114;2024-03-02T04:33:39;99611.72;;;10.43;54.54
81387;BME280;70842;50.744;7.114;2024-03-02T04:36:05;99631.16;;;10.52;54.81
81387;BME280;70842;50.744;7.114;2024-03-02T04:38:35;99631.31;;;10.23;55.10
81387;BME280;70842;50.744;7.114;2024-03-02T04:41:01;99643.34;;;10.17;55.91
81387;BME280;70842;50.744;7.114;2024-03-02T04:43:28;99633.25;;;10.31;55.57
81387;BME280;70842;50.744;7.114;2024-03-02T04:45:54;99630.09;;;10.45;55.24
81387;BME280;70842;50.744;7.114;2024-03-02T04:48:21;99634.56;;;10.17;55.20
81387;BME280;70842;50.744;7.114;2024-03-02T04:50:48;99645.97;;;10.45;55.13
81387;BME280;70842;50.744;7.114;2024-03-02T04:53:14;99638.03;;;10.45;54.88
81387;BME280;70842;50.744;7.114;2024-03-02T04:55:41;99646.69;;;10.37;55.44
81387;BME280;70842;50.744;7.114;2024-03-02T04:58:07;99650.59;;;10.43;54.78
81387;BME280;70842;50.744;7.114;2024-03-02T05:00:34;99651.44;;;10.43;55.32
81387;BME280;70842;50.744;7.114;2024-03-02T05:03:02;99659.13;;;10.37;55.38
81387;BME280;70842;50.744;7.114;2024-03-02T05:05:28;99652.25;;;10.44;55.15
81387;BME280;70842;50.744;7.114;2024-03-02T05:07:55;99658.69;;;9.95;56.26
81387;BME280;70842;50.744;7.114;2024-03-02T05:10:21;99646.94;;;10.16;55.75
81387;BME280;70842;50.744;7.114;2024-03-02T05:12:48;99656.31;;;10.01;56.29
81387;BME280;70842;50.744;7.114;2024-03-02T05:15:25;99656.25;;;10.20;55.71
81387;BME280;70842;50.744;7.114;2024-03-02T05:17:52;99655.34;;;10.02;56.22
81387;BME280;70842;50.744;7.114;2024-03-02T05:20:19;99657.00;;;10.03;55.69
81387;BME280;70842;50.744;7.114;2024-03-02T05:22:46;99643.78;;;10.13;55.75
81387;BME280;70842;50.744;7.114;2024-03-02T05:25:13;99652.25;;;10.44;55.34
81387;BME280;70842;50.744;7.114;2024-03-02T05:27:39;99658.78;;;10.49;54.82
81387;BME280;70842;50.744;7.114;2024-03-02T05:30:06;99666.94;;;10.29;55.21
81387;BME280;70842;50.744;7.114;2024-03-02T05:32:33;99663.34;;;10.30;55.13
81387;BME280;70842;50.744;7.114;2024-03-02T05:35:00;99674.41;;;10.15;55.87
81387;BME280;70842;50.744;7.114;2024-03-02T05:37:26;99666.91;;;10.11;55.95
81387;BME280;70842;50.744;7.114;2024-03-02T05:39:53;99653.63;;;9.84;56.37
81387;BME280;70842;50.744;7.114;2024-03-02T05:42:19;99652.59;;;9.94;56.14
81387;BME280;70842;50.744;7.114;2024-03-02T05:44:46;99667.47;;;10.05;56.19
81387;BME280;70842;50.744;7.114;2024-03-02T05:47:13;99666.09;;;9.91;56.26
81387;BME280;70842;50.744;7.114;2024-03-02T05:49:39;99656.81;;;9.78;56.61
81387;BME280;70842;50.744;7.114;2024-03-02T05:52:06;99672.25;;;9.82;56.82
81387;BME280;70842;50.744;7.114;2024-03-02T05:54:33;99669.25;;;10.04;56.18
81387;BME280;70842;50.744;7.114;2024-03-02T05:56:59;99674.72;;;9.93;56.49
81387;BME280;70842;50.744;7.114;2024-03-02T05:59:43;99662.56;;;9.64;56.82
81387;BME280;70842;50.744;7.114;2024-03-02T06:02:12;99687.34;;;9.53;57.16
81387;BME280;70842;50.744;7.114;2024-03-02T06:04:39;99684.63;;;9.91;56.60
81387;BME280;70842;50.744;7.114;2024-03-02T06:07:05;99684.16;;;10.05;56.55
81387;BME280;70842;50.744;7.114;2024-03-02T06:09:32;99678.06;;;9.95;56.31
81387;BME280;70842;50.744;7.114;2024-03-02T06:11:58;99683.44;;;9.57;57.44
81387;BME280;70842;50.744;7.114;2024-03-02T06:14:25;99682.31;;;10.25;55.82
81387;BME280;70842;50.744;7.114;2024-03-02T06:16:51;99679.50;;;10.27;55.92
81387;BME280;70842;50.744;7.114;2024-03-02T06:19:18;99674.66;;;10.22;55.73
81387;BME280;70842;50.744;7.114;2024-03-02T06:21:44;99672.44;;;10.08;56.10
81387;BME280;70842;50.744;7.114;2024-03-02T06:24:11;99672.25;;;10.29;55.49
81387;BME280;70842;50.744;7.114;2024-03-02T06:26:39;99681.53;;;10.42;55.37
81387;BME280;70842;50.744;7.114;2024-03-02T06:29:06;99691.38;;;10.23;55.60
81387;BME280;70842;50.744;7.114;2024-03-02T06:31:33;99695.44;;;10.17;55.87
81387;BME280;70842;50.744;7.114;2024-03-02T06:34:00;99686.06;;;9.76;56.75
81387;BME280;70842;50.744;7.114;2024-03-02T06:36:26;99687.06;;;9.75;56.50
81387;BME280;70842;50.744;7.114;2024-03-02T06:38:52;99698.91;;;10.08;56.01
81387;BME280;70842;50.744;7.114;2024-03-02T06:41:19;99701.53;;;10.27;55.65
81387;BME280;70842;50.744;7.114;2024-03-02T06:43:45;99711.47;;;10.06;56.25
81387;BME280;70842;50.744;7.114;2024-03-02T06:46:12;99702.94;;;10.22;55.78
81387;BME280;70842;50.744;7.114;2024-03-02T06:48:41;99703.00;;;10.39;55.05
81387;BME280;70842;50.744;7.114;2024-03-02T06:51:07;99703.59;;;10.33;55.27
81387;BME280;70842;50.744;7.114;2024-03-02T06:53:36;99691.84;;;10.45;54.96
81387;BME280;70842;50.744;7.114;2024-03-02T06:56:02;99693.22;;;10.49;55.20
81387;BME280;70842;50.744;7.114;2024-03-02T06:58:29;99689.53;;;10.60;54.85
81387;BME280;70842;50.744;7.114;2024-03-02T07:00:55;99693.31;;;10.57;55.52
81387;BME280;70842;50.744;7.114;2024-03-02T07:03:22;99691.53;;;10.93;54.32
81387;BME280;70842;50.744;7.114;2024-03-02T07:05:48;99686.47;;;10.55;55.29
81387;BME280;70842;50.744;7.114;2024-03-02T07:08:15;99693.63;;;10.72;54.86
81387;BME280;70842;50.744;7.114;2024-03-02T07:10:41;99692.66;;;10.90;54.17
81387;BME280;70842;50.744;7.114;2024-03-02T07:13:08;99700.34;;;10.93;54.89
81387;BME280;70842;50.744;7.114;2024-03-02T07:15:34;99701.97;;;10.50;55.46
81387;BME280;70842;50.744;7.114;2024-03-02T07:18:36;99708.16;;;10.13;55.94
81387;BME280;70842;50.744;7.114;2024-03-02T07:21:08;99725.09;;;10.20;55.88
81387;BME280;70842;50.744;7.114;2024-03-02T07:23:34;99727.50;;;10.51;55.30
81387;BME280;70842;50.744;7.114;2024-03-02T07:26:01;99729.47;;;10.39;55.05
81387;BME280;70842;50.744;7.114;2024-03-02T07:28:31;99727.88;;;10.83;53.99
81387;BME280;70842;50.744;7.114;2024-03-02T07:31:02;99733.94;;;10.93;53.85
81387;BME280;70842;50.744;7.114;2024-03-02T07:33:29;99720.09;;;10.81;54.13
81387;BME280;70842;50.744;7.114;2024-03-02T07:35:56;99729.25;;;10.87;53.81
81387;BME280;70842;50.744;7.114;2024-03-02T07:38:23;99732.69;;;11.15;53.35
81387;BME280;70842;50.744;7.114;2024-03-02T07:40:49;99729.56;;;11.02;53.47
81387;BME280;70842;50.744;7.114;2024-03-02T07:43:20;99739.66;;;11.16;53.46
81387;BME280;70842;50.744;7.114;2024-03-02T07:45:47;99727.84;;;11.28;53.49
81387;BME280;70842;50.744;7.114;2024-03-02T07:48:14;99730.09;;;11.75;53.96
81387;BME280;70842;50.744;7.114;2024-03-02T07:50:41;99728.75;;;11.71;55.62
81387;BME280;70842;50.744;7.114;2024-03-02T07:53:07;99717.63;;;11.68;54.36
81387;BME280;70842;50.744;7.114;2024-03-02T07:55:34;99731.09;;;11.74;52.60
81387;BME280;70842;50.744;7.114;2024-03-02T07:58:01;99724.44;;;11.96;51.62
81387;BME280;70842;50.744;7.114;2024-03-02T08:00:28;99724.72;;;12.11;51.54
81387;BME280;70842;50.744;7.114;2024-03-02T08:02:55;99746.09;;;11.84;52.24
81387;BME280;70842;50.744;7.114;2024-03-02T08:05:22;99744.72;;;12.23;51.45
81387;BME280;70842;50.744;7.114;2024-03-02T08:07:48;99740.75;;;12.27;51.46
81387;BME280;70842;50.744;7.114;2024-03-02T08:10:19;99730.13;;;12.27;51.64
81387;BME280;70842;50.744;7.114;2024-03-02T08:12:45;99742.94;;;12.06;51.52
81387;BME280;70842;50.744;7.114;2024-03-02T08:15:12;99731.50;;;12.39;51.20
81387;BME280;70842;50.744;7.114;2024-03-02T08:17:41;99746.38;;;12.57;51.81
81387;BME280;70842;50.744;7.114;2024-03-02T08:20:16;99738.00;;;12.11;51.64
81387;BME280;70842;50.744;7.114;2024-03-02T08:22:42;99741.91;;;12.58;51.46
81387;BME280;70842;50.744;7.114;2024-03-02T08:25:09;99748.72;;;12.27;51.81
81387;BME280;70842;50.744;7.114;2024-03-02T08:27:35;99748.59;;;12.36;50.63
81387;BME280;70842;50.744;7.114;2024-03-02T08:30:03;99747.25;;;12.32;50.54
81387;BME280;70842;50.744;7.114;2024-03-02T08:32:32;99740.78;;;12.35;51.20
81387;BME280;70842;50.744;7.114;2024-03-02T08:34:59;99741.13;;;12.32;51.03
81387;BME280;70842;50.744;7.114;2024-03-02T08:37:25;99747.66;;;12.20;50.93
81387;BME280;70842;50.744;7.114;2024-03-02T08:39:53;99739.34;;;12.15;51.18
81387;BME280;70842;50.744;7.114;2024-03-02T08:42:19;99751.00;;;11.96;51.02
81387;BME280;70842;50.744;7.114;2024-03-02T08:44:46;99753.22;;;11.65;51.12
81387;BME280;70842;50.744;7.114;2024-03-02T08:47:12;99753.56;;;12.06;51.14
81387;BME280;70842;50.744;7.114;2024-03-02T08:49:39;99747.38;;;12.23;50.88
81387;BME280;70842;50.744;7.114;2024-03-02T08:52:06;99744.16;;;12.45;50.19
81387;BME280;70842;50.744;7.114;2024-03-02T08:54:32;99741.00;;;12.83;49.54
81387;BME280;70842;50.744;7.114;2024-03-02T08:57:00;99744.31;;;12.85;49.15
81387;BME280;70842;50.744;7.114;2024-03-02T08:59:26;99740.53;;;12.54;49.35
81387;BME280;70842;50.744;7.114;2024-03-02T09:01:54;99739.94;;;12.34;49.74
81387;BME280;70842;50.744;7.114;2024-03-02T09:04:20;99737.88;;;12.54;49.71
81387;BME280;70842;50.744;7.114;2024-03-02T09:06:51;99734.59;;;13.02;49.32
81387;BME280;70842;50.744;7.114;2024-03-02T09:09:17;99741.56;;;13.03;48.71
81387;BME280;70842;50.744;7.114;2024-03-02T09:11:45;99737.38;;;12.92;48.56
81387;BME280;70842;50.744;7.114;2024-03-02T09:14:12;99749.34;;;12.96;49.06
81387;BME280;70842;50.744;7.114;2024-03-02T09:16:41;99738.66;;;12.72;49.03
81387;BME280;70842;50.744;7.114;2024-03-02T09:19:07;99739.69;;;12.45;49.22
81387;BME280;70842;50.744;7.114;2024-03-02T09:21:34;99741.84;;;13.34;47.83
81387;BME280;70842;50.744;7.114;2024-03-02T09:24:00;99741.78;;;12.68;48.34
81387;BME280;70842;50.744;7.114;2024-03-02T09:26:29;99745.22;;;12.60;48.57
81387;BME280;70842;50.744;7.114;2024-03-02T09:28:55;99738.28;;;13.17;47.38
81387;BME280;70842;50.744;7.114;2024-03-02T09:31:21;99746.50;;;13.56;47.27
81387;BME280;70842;50.744;7.114;2024-03-02T09:33:48;99737.84;;;13.29;47.54
81387;BME280;70842;50.744;7.114;2024-03-02T09:36:19;99742.72;;;13.00;47.78
81387;BME280;70842;50.744;7.114;2024-03-02T09:38:45;99748.19;;;12.91;47.81
81387;BME280;70842;50.744;7.114;2024-03-02T09:41:12;99747.13;;;13.25;48.13
81387;BME280;70842;50.744;7.114;2024-03-02T09:43:40;99734.69;;;12.84;48.26
81387;BME280;70842;50.744;7.114;2024-03-02T09:46:09;99726.84;;;13.24;47.90
81387;BME280;70842;50.744;7.114;2024-03-02T09:48:37;99737.34;;;13.90;46.67
81387;BME280;70842;50.744;7.114;2024-03-02T09:51:04;99737.16;;;14.00;45.92
81387;BME280;70842;50.744;7.114;2024-03-02T09:53:32;99742.81;;;14.13;45.62
81387;BME280;70842;50.744;7.114;2024-03-02T09:56:00;99742.84;;;14.29;46.52
81387;BME280;70842;50.744;7.114;2024-03-02T09:58:27;99742.84;;;14.05;46.11
81387;BME280;70842;50.744;7.114;2024-03-02T10:00:53;99739.78;;;14.24;45.69
81387;BME280;70842;50.744;7.114;2024-03-02T10:03:22;99738.66;;;14.19;45.08
81387;BME280;70842;50.744;7.114;2024-03-02T10:05:49;99746.19;;;13.67;46.67
81387;BME280;70842;50.744;7.114;2024-03-02T10:08:15;99732.94;;;14.46;45.22
81387;BME280;70842;50.744;7.114;2024-03-02T10:10:42;99749.38;;;14.57;44.63
81387;BME280;70842;50.744;7.114;2024-03-02T10:13:10;99745.41;;;14.53;45.61
81387;BME280;70842;50.744;7.114;2024-03-02T10:15:38;99736.53;;;13.82;46.01
81387;BME280;70842;50.744;7.114;2024-03-02T10:18:11;99739.47;;;14.27;46.39
81387;BME280;70842;50.744;7.114;2024-03-02T10:20:42;99747.22;;;14.61;44.97
81387;BME280;70842;50.744;7.114;2024-03-02T10:23:15;99747.63;;;14.89;44.73
81387;BME280;70842;50.744;7.114;2024-03-02T10:25:44;99733.81;;;14.77;44.15
81387;BME280;70842;50.744;7.114;2024-03-02T10:28:23;99744.16;;;15.33;44.39
81387;BME280;70842;50.744;7.114;2024-03-02T10:30:49;99737.38;;;15.76;43.44
81387;BME280;70842;50.744;7.114;2024-03-02T10:33:17;99723.69;;;15.56;43.15
81387;BME280;70842;50.744;7.114;2024-03-02T10:35:44;99719.78;;;15.67;43.67
81387;BME280;70842;50.744;7.114;2024-03-02T10:38:11;99712.84;;;15.58;44.10
81387;BME280;70842;50.744;7.114;2024-03-02T10:40:37;99721.81;;;15.34;44.44
81387;BME280;70842;50.744;7.114;2024-03-02T10:43:04;99719.09;;;15.88;43.17
81387;BME280;70842;50.744;7.114;2024-03-02T10:45:32;99723.03;;;15.77;43.58
81387;BME280;70842;50.744;7.114;2024-03-02T10:48:00;99712.56;;;15.90;42.80
81387;BME280;70842;50.744;7.114;2024-03-02T10:50:28;99712.16;;;15.79;43.26
81387;BME280;70842;50.744;7.114;2024-03-02T10:52:55;99701.00;;;15.75;43.37
81387;BME280;70842;50.744;7.114;2024-03-02T10:55:21;99689.13;;;15.32;43.14
81387;BME280;70842;50.744;7.114;2024-03-02T10:57:52;99707.69;;;16.37;42.99
81387;BME280;70842;50.744;7.114;2024-03-02T11:00:20;99692.03;;;16.34;42.24
81387;BME280;70842;50.744;7.114;2024-03-02T11:02:58;99699.78;;;16.59;42.15
81387;BME280;70842;50.744;7.114;2024-03-02T11:05:33;99702.75;;;16.34;42.77
81387;BME280;70842;50.744;7.114;2024-03-02T11:08:02;99697.84;;;16.23;42.15
81387;BME280;70842;50.744;7.114;2024-03-02T11:10:36;99699.75;;;15.86;43.37
81387;BME280;70842;50.744;7.114;2024-03-02T11:13:09;99704.97;;;16.46;42.55
81387;BME280;70842;50.744;7.114;2024-03-02T11:15:39;99703.56;;;16.79;42.33
81387;BME280;70842;50.744;7.114;2024-03-02T11:18:07;99701.91;;;16.49;42.78
81387;BME280;70842;50.744;7.114;2024-03-02T11:20:39;99705.84;;;15.94;43.29
81387;BME280;70842;50.744;7.114;2024-03-02T11:23:07;99713.03;;;16.08;43.36
81387;BME280;70842;50.744;7.114;2024-03-02T11:25:34;99707.25;;;15.82;43.88
81387;BME280;70842;50.744;7.114;2024-03-02T11:28:03;99710.84;;;15.75;43.58
81387;BME280;70842;50.744;7.114;2024-03-02T11:33:01;99701.78;;;15.98;43.45
81387;BME280;70842;50.744;7.114;2024-03-02T11:35:43;99701.91;;;15.82;43.24
81387;BME280;70842;50.744;7.114;2024-03-02T11:38:13;99704.00;;;15.57;44.02
81387;BME280;70842;50.744;7.114;2024-03-02T11:40:40;99700.59;;;16.01;43.08
81387;BME280;70842;50.744;7.114;2024-03-02T11:43:07;99692.78;;;16.43;42.87
81387;BME280;70842;50.744;7.114;2024-03-02T11:45:37;99685.94;;;16.40;43.13
81387;BME280;70842;50.744;7.114;2024-03-02T11:48:11;99683.91;;;16.72;41.81
81387;BME280;70842;50.744;7.114;2024-03-02T11:50:47;99690.19;;;16.79;41.39
81387;BME280;70842;50.744;7.114;2024-03-02T11:53:15;99694.09;;;16.97;41.81
81387;BME280;70842;50.744;7.114;2024-03-02T11:55:42;99696.38;;;16.50;42.78
81387;BME280;70842;50.744;7.114;2024-03-02T11:58:13;99693.69;;;16.65;42.59
81387;BME280;70842;50.744;7.114;2024-03-02T12:00:39;99684.56;;;16.74;42.27
81387;BME280;70842;50.744;7.114;2024-03-02T12:03:12;99681.25;;;16.57;42.33
81387;BME280;70842;50.744;7.114;2024-03-02T12:05:39;99673.38;;;16.85;41.94
81387;BME280;70842;50.744;7.114;2024-03-02T12:08:06;99673.22;;;16.42;43.68
81387;BME280;70842;50.744;7.114;2024-03-02T12:10:34;99665.81;;;16.74;42.87
81387;BME280;70842;50.744;7.114;2024-03-02T12:13:05;99662.25;;;16.52;42.19
81387;BME280;70842;50.744;7.114;2024-03-02T12:15:38;99641.94;;;16.72;42.84
81387;BME280;70842;50.744;7.114;2024-03-02T12:18:05;99645.81;;;17.05;42.26
81387;BME280;70842;50.744;7.114;2024-03-02T12:20:33;99647.13;;;17.37;41.55
81387;BME280;70842;50.744;7.114;2024-03-02T12:23:04;99653.28;;;18.08;40.69
81387;BME280;70842;50.744;7.114;2024-03-02T12:25:32;99647.25;;;17.71;40.77
81387;BME280;70842;50.744;7.114;2024-03-02T12:28:02;99651.56;;;17.24;40.74
81387;BME280;70842;50.744;7.114;2024-03-02T12:30:30;99648.38;;;17.35;41.67
81387;BME280;70842;50.744;7.114;2024-03-02T12:32:56;99629.81;;;17.54;40.20
81387;BME280;70842;50.744;7.114;2024-03-02T12:35:24;99648.03;;;17.65;40.35
81387;BME280;70842;50.744;7.114;2024-03-02T12:37:52;99629.31;;;17.23;40.13
81387;BME280;70842;50.744;7.114;2024-03-02T12:40:44;99623.94;;;17.44;40.14
81387;BME280;70842;50.744;7.114;2024-03-02T12:43:10;99620.34;;;17.86;40.33
81387;BME280;70842;50.744;7.114;2024-03-02T12:45:37;99616.19;;;18.52;39.76
81387;BME280;70842;50.744;7.114;2024-03-02T12:48:04;99614.00;;;18.75;37.95
81387;BME280;70842;50.744;7.114;2024-03-02T12:50:33;99617.38;;;18.36;37.97
81387;BME280;70842;50.744;7.114;2024-03-02T12:52:59;99614.59;;;18.57;38.67
81387;BME280;70842;50.744;7.114;2024-03-02T12:55:26;99595.31;;;19.14;37.38
81387;BME280;70842;50.744;7.114;2024-03-02T12:57:55;99618.16;;;18.84;37.62
81387;BME280;70842;50.744;7.114;2024-03-02T13:00:21;99614.31;;;19.13;38.15
81387;BME280;70842;50.744;7.114;2024-03-02T13:02:49;99611.47;;;18.20;38.70
81387;BME280;70842;50.744;7.114;2024-03-02T13:05:17;99618.56;;;17.93;38.87
81387;BME280;70842;50.744;7.114;2024-03-02T13:07:43;99616.00;;;18.13;38.67
81387;BME280;70842;50.744;7.114;2024-03-02T13:10:12;99611.69;;;17.35;39.79